sensor_id;sensor_type;location;lat;lon;timestamp;temperature;humidity
10543;DHT22;5320;50.046;10.314;2022-08-19T00:01:35;21.60;1.00
10543;DHT22;5320;50.046;10.314;2022-08-19T00:04:04;21.60;1.00
10543;DHT22;5320;50.046;10.314;2022-08-19T00:06:30;21.50;1.00
10543;DHT22;5320;50.046;10.314;2022-08-19T00:08:57;21.50;1.00
10543;DHT22;5320;50.046;10.314;2022-08-19T00:11:23;21.40;1.00
10543;DHT22;5320;50.046;10.314;2022-08-19T00:13:49;21.50;1.00
10543;DHT22;5320;50.046;10.314;2022-08-19T00:16:16;21.40;1.00
10543;DHT22;5320;50.046;10.314;2022-08-19T00:18:44;21.40;1.00
10543;DHT22;5320;50.046;10.314;2022-08-19T00:21:10;21.30;1.00
10543;DHT22;5320;50.046;10.314;2022-08-19T00:23:37;21.30;1.00
10543;DHT22;5320;50.046;10.314;2022-08-19T00:26:04;21.30;1.00
10543;DHT22;5320;50.046;10.314;2022-08-19T00:28:30;21.30;1.00
10543;DHT22;5320;50.046;10.314;2022-08-19T00:30:56;21.20;1.00
10543;DHT22;5320;50.046;10.314;2022-08-19T00:33:22;21.10;1.00
10543;DHT22;5320;50.046;10.314;2022-08-19T00:35:48;21.00;1.30
10543;DHT22;5320;50.046;10.314;2022-08-19T00:38:13;21.00;1.00
10543;DHT22;5320;50.046;10.314;2022-08-19T00:40:41;20.90;1.00
10543;DHT22;5320;50.046;10.314;2022-08-19T00:43:09;20.90;1.00
10543;DHT22;5320;50.046;10.314;2022-08-19T00:45:35;20.90;1.00
10543;DHT22;5320;50.046;10.314;2022-08-19T00:48:02;20.70;89.90
10543;DHT22;5320;50.046;10.314;2022-08-19T00:50:33;20.60;99.90
10543;DHT22;5320;50.046;10.314;2022-08-19T00:52:59;20.70;99.90
10543;DHT22;5320;50.046;10.314;2022-08-19T00:55:30;20.80;30.00
10543;DHT22;5320;50.046;10.314;2022-08-19T00:58:02;20.80;46.50
10543;DHT22;5320;50.046;10.314;2022-08-19T01:00:30;20.70;89.80
10543;DHT22;5320;50.046;10.314;2022-08-19T01:02:56;20.60;99.90
10543;DHT22;5320;50.046;10.314;2022-08-19T01:05:26;20.50;99.90
10543;DHT22;5320;50.046;10.314;2022-08-19T01:07:54;20.50;99.90
10543;DHT22;5320;50.046;10.314;2022-08-19T01:10:23;20.60;83.30
10543;DHT22;5320;50.046;10.314;2022-08-19T01:12:51;20.70;76.90
10543;DHT22;5320;50.046;10.314;2022-08-19T01:15:21;20.70;54.70
10543;DHT22;5320;50.046;10.314;2022-08-19T01:17:49;20.60;91.70
10543;DHT22;5320;50.046;10.314;2022-08-19T01:20:20;20.60;99.90
10543;DHT22;5320;50.046;10.314;2022-08-19T01:22:50;20.70;42.70
10543;DHT22;5320;50.046;10.314;2022-08-19T01:25:19;20.50;99.90
10543;DHT22;5320;50.046;10.314;2022-08-19T01:27:47;20.50;99.90
10543;DHT22;5320;50.046;10.314;2022-08-19T01:30:21;20.50;99.90
10543;DHT22;5320;50.046;10.314;2022-08-19T01:32:49;20.60;99.90
10543;DHT22;5320;50.046;10.314;2022-08-19T01:35:15;20.70;59.40
10543;DHT22;5320;50.046;10.314;2022-08-19T01:37:59;20.70;15.00
10543;DHT22;5320;50.046;10.314;2022-08-19T01:40:27;20.80;1.00
10543;DHT22;5320;50.046;10.314;2022-08-19T01:42:54;20.70;31.50
10543;DHT22;5320;50.046;10.314;2022-08-19T01:45:22;20.80;1.00
10543;DHT22;5320;50.046;10.314;2022-08-19T01:47:48;20.90;1.00
10543;DHT22;5320;50.046;10.314;2022-08-19T01:50:15;20.90;1.00
10543;DHT22;5320;50.046;10.314;2022-08-19T01:52:42;20.90;1.00
10543;DHT22;5320;50.046;10.314;2022-08-19T01:55:12;20.90;1.00
10543;DHT22;5320;50.046;10.314;2022-08-19T01:57:40;20.90;1.00
10543;DHT22;5320;50.046;10.314;2022-08-19T02:00:09;21.00;1.00
10543;DHT22;5320;50.046;10.314;2022-08-19T02:02:35;21.00;1.00
10543;DHT22;5320;50.046;10.314;2022-08-19T02:05:01;21.10;1.00
10543;DHT22;5320;50.046;10.314;2022-08-19T02:07:27;21.10;1.00
10543;DHT22;5320;50.046;10.314;2022-08-19T02:09:54;21.20;1.00
10543;DHT22;5320;50.046;10.314;2022-08-19T02:12:21;21.30;1.00
10543;DHT22;5320;50.046;10.314;2022-08-19T02:14:47;21.30;1.00
10543;DHT22;5320;50.046;10.314;2022-08-19T02:17:13;21.40;1.00
10543;DHT22;5320;50.046;10.314;2022-08-19T02:19:38;21.40;1.00
10543;DHT22;5320;50.046;10.314;2022-08-19T02:22:05;21.40;1.00
10543;DHT22;5320;50.046;10.314;2022-08-19T02:24:31;21.40;1.00
10543;DHT22;5320;50.046;10.314;2022-08-19T02:26:57;21.40;1.00
10543;DHT22;5320;50.046;10.314;2022-08-19T02:29:24;21.30;1.00
10543;DHT22;5320;50.046;10.314;2022-08-19T02:31:49;21.30;1.00
10543;DHT22;5320;50.046;10.314;2022-08-19T02:34:16;21.30;1.00
10543;DHT22;5320;50.046;10.314;2022-08-19T02:36:42;21.30;1.00
10543;DHT22;5320;50.046;10.314;2022-08-19T02:39:09;21.20;1.00
10543;DHT22;5320;50.046;10.314;2022-08-19T02:41:34;21.30;1.00
10543;DHT22;5320;50.046;10.314;2022-08-19T02:44:02;21.30;1.00
10543;DHT22;5320;50.046;10.314;2022-08-19T02:46:31;21.30;1.00
10543;DHT22;5320;50.046;10.314;2022-08-19T02:49:00;21.30;1.00
10543;DHT22;5320;50.046;10.314;2022-08-19T02:51:38;21.30;1.00
10543;DHT22;5320;50.046;10.314;2022-08-19T02:54:05;21.30;1.00
10543;DHT22;5320;50.046;10.314;2022-08-19T02:56:31;21.30;1.00
10543;DHT22;5320;50.046;10.314;2022-08-19T02:58:59;21.20;1.00
10543;DHT22;5320;50.046;10.314;2022-08-19T03:01:30;21.10;1.00
10543;DHT22;5320;50.046;10.314;2022-08-19T03:03:58;21.10;1.00
10543;DHT22;5320;50.046;10.314;2022-08-19T03:06:25;21.10;1.00
10543;DHT22;5320;50.046;10.314;2022-08-19T03:08:51;21.10;1.00
10543;DHT22;5320;50.046;10.314;2022-08-19T03:11:23;21.10;1.00
10543;DHT22;5320;50.046;10.314;2022-08-19T03:13:49;21.10;1.00
10543;DHT22;5320;50.046;10.314;2022-08-19T03:16:20;21.10;1.00
10543;DHT22;5320;50.046;10.314;2022-08-19T03:18:47;21.10;1.00
10543;DHT22;5320;50.046;10.314;2022-08-19T03:21:25;21.00;1.00
10543;DHT22;5320;50.046;10.314;2022-08-19T03:23:58;21.10;1.00
10543;DHT22;5320;50.046;10.314;2022-08-19T03:26:25;21.00;1.00
10543;DHT22;5320;50.046;10.314;2022-08-19T03:28:51;21.00;1.00
10543;DHT22;5320;50.046;10.314;2022-08-19T03:31:22;20.90;1.00
10543;DHT22;5320;50.046;10.314;2022-08-19T03:33:51;20.50;99.90
10543;DHT22;5320;50.046;10.314;2022-08-19T03:36:19;20.30;99.90
10543;DHT22;5320;50.046;10.314;2022-08-19T03:38:54;20.10;99.90
10543;DHT22;5320;50.046;10.314;2022-08-19T03:41:25;20.00;99.90
10543;DHT22;5320;50.046;10.314;2022-08-19T03:43:52;19.90;99.90
10543;DHT22;5320;50.046;10.314;2022-08-19T03:46:23;19.90;99.90
10543;DHT22;5320;50.046;10.314;2022-08-19T03:48:52;19.90;99.90
10543;DHT22;5320;50.046;10.314;2022-08-19T03:51:28;19.90;99.90
10543;DHT22;5320;50.046;10.314;2022-08-19T03:53:58;20.00;99.90
10543;DHT22;5320;50.046;10.314;2022-08-19T03:56:24;20.00;99.90
10543;DHT22;5320;50.046;10.314;2022-08-19T03:58:52;20.20;99.90
10543;DHT22;5320;50.046;10.314;2022-08-19T04:01:20;20.40;99.90
10543;DHT22;5320;50.046;10.314;2022-08-19T04:03:47;20.50;99.90
10543;DHT22;5320;50.046;10.314;2022-08-19T04:06:22;20.70;95.70
10543;DHT22;5320;50.046;10.314;2022-08-19T04:08:49;20.80;37.10
10543;DHT22;5320;50.046;10.314;2022-08-19T04:11:27;20.90;2.80
10543;DHT22;5320;50.046;10.314;2022-08-19T04:13:54;21.00;1.00
10543;DHT22;5320;50.046;10.314;2022-08-19T04:16:22;21.10;1.00
10543;DHT22;5320;50.046;10.314;2022-08-19T04:18:49;21.20;1.00
10543;DHT22;5320;50.046;10.314;2022-08-19T04:21:17;21.30;1.00
10543;DHT22;5320;50.046;10.314;2022-08-19T04:23:44;21.40;1.00
10543;DHT22;5320;50.046;10.314;2022-08-19T04:26:14;21.40;1.00
10543;DHT22;5320;50.046;10.314;2022-08-19T04:28:42;21.50;1.00
10543;DHT22;5320;50.046;10.314;2022-08-19T04:31:14;21.50;1.00
10543;DHT22;5320;50.046;10.314;2022-08-19T04:33:41;21.50;1.00
10543;DHT22;5320;50.046;10.314;2022-08-19T04:36:07;21.50;1.00
10543;DHT22;5320;50.046;10.314;2022-08-19T04:38:33;21.50;1.00
10543;DHT22;5320;50.046;10.314;2022-08-19T04:40:58;21.40;1.00
10543;DHT22;5320;50.046;10.314;2022-08-19T04:43:45;21.40;1.00
10543;DHT22;5320;50.046;10.314;2022-08-19T04:46:14;21.40;1.00
10543;DHT22;5320;50.046;10.314;2022-08-19T04:48:40;21.40;1.00
10543;DHT22;5320;50.046;10.314;2022-08-19T04:51:09;21.40;1.00
10543;DHT22;5320;50.046;10.314;2022-08-19T04:53:37;21.40;1.00
10543;DHT22;5320;50.046;10.314;2022-08-19T04:56:16;21.20;1.00
10543;DHT22;5320;50.046;10.314;2022-08-19T04:58:43;21.00;1.00
10543;DHT22;5320;50.046;10.314;2022-08-19T05:01:17;21.00;1.00
10543;DHT22;5320;50.046;10.314;2022-08-19T05:03:43;21.00;12.30
10543;DHT22;5320;50.046;10.314;2022-08-19T05:06:12;20.90;4.70
10543;DHT22;5320;50.046;10.314;2022-08-19T05:08:40;20.70;99.90
10543;DHT22;5320;50.046;10.314;2022-08-19T05:11:21;20.40;99.90
10543;DHT22;5320;50.046;10.314;2022-08-19T05:13:47;20.10;99.90
10543;DHT22;5320;50.046;10.314;2022-08-19T05:16:19;20.00;99.90
10543;DHT22;5320;50.046;10.314;2022-08-19T05:18:45;20.00;99.90
10543;DHT22;5320;50.046;10.314;2022-08-19T05:21:30;20.10;99.90
10543;DHT22;5320;50.046;10.314;2022-08-19T05:24:16;20.20;99.90
10543;DHT22;5320;50.046;10.314;2022-08-19T05:26:46;20.40;99.90
10543;DHT22;5320;50.046;10.314;2022-08-19T05:29:13;20.60;99.90
10543;DHT22;5320;50.046;10.314;2022-08-19T05:31:40;20.80;99.90
10543;DHT22;5320;50.046;10.314;2022-08-19T05:34:06;20.80;99.90
10543;DHT22;5320;50.046;10.314;2022-08-19T05:36:38;20.90;99.90
10543;DHT22;5320;50.046;10.314;2022-08-19T05:39:10;21.00;61.40
10543;DHT22;5320;50.046;10.314;2022-08-19T05:41:36;20.80;99.90
10543;DHT22;5320;50.046;10.314;2022-08-19T05:44:06;20.60;99.90
10543;DHT22;5320;50.046;10.314;2022-08-19T05:46:34;20.70;99.90
10543;DHT22;5320;50.046;10.314;2022-08-19T05:49:00;20.70;99.90
10543;DHT22;5320;50.046;10.314;2022-08-19T05:51:26;20.80;99.90
10543;DHT22;5320;50.046;10.314;2022-08-19T05:53:52;21.00;99.90
10543;DHT22;5320;50.046;10.314;2022-08-19T05:56:18;21.10;88.90
10543;DHT22;5320;50.046;10.314;2022-08-19T05:58:45;21.00;99.20
10543;DHT22;5320;50.046;10.314;2022-08-19T06:01:14;20.80;99.90
10543;DHT22;5320;50.046;10.314;2022-08-19T06:03:40;20.80;99.90
10543;DHT22;5320;50.046;10.314;2022-08-19T06:06:08;20.80;99.90
10543;DHT22;5320;50.046;10.314;2022-08-19T06:08:35;20.80;99.90
10543;DHT22;5320;50.046;10.314;2022-08-19T06:11:18;20.80;99.90
10543;DHT22;5320;50.046;10.314;2022-08-19T06:13:45;20.90;99.90
10543;DHT22;5320;50.046;10.314;2022-08-19T06:16:13;21.00;99.90
10543;DHT22;5320;50.046;10.314;2022-08-19T06:18:46;21.10;99.90
10543;DHT22;5320;50.046;10.314;2022-08-19T06:21:11;21.00;99.90
10543;DHT22;5320;50.046;10.314;2022-08-19T06:23:38;21.00;99.90
10543;DHT22;5320;50.046;10.314;2022-08-19T06:26:05;21.10;99.90
10543;DHT22;5320;50.046;10.314;2022-08-19T06:28:30;21.10;99.90
10543;DHT22;5320;50.046;10.314;2022-08-19T06:30:59;20.90;99.90
10543;DHT22;5320;50.046;10.314;2022-08-19T06:33:31;21.00;99.90
10543;DHT22;5320;50.046;10.314;2022-08-19T06:35:57;21.00;99.90
10543;DHT22;5320;50.046;10.314;2022-08-19T06:38:22;21.00;99.90
10543;DHT22;5320;50.046;10.314;2022-08-19T06:40:48;21.00;99.90
10543;DHT22;5320;50.046;10.314;2022-08-19T06:43:14;20.90;99.90
10543;DHT22;5320;50.046;10.314;2022-08-19T06:45:41;20.90;99.90
10543;DHT22;5320;50.046;10.314;2022-08-19T06:48:08;20.90;99.90
10543;DHT22;5320;50.046;10.314;2022-08-19T06:50:34;20.90;99.90
10543;DHT22;5320;50.046;10.314;2022-08-19T06:52:59;21.10;99.90
10543;DHT22;5320;50.046;10.314;2022-08-19T06:55:25;21.20;99.90
10543;DHT22;5320;50.046;10.314;2022-08-19T06:57:52;21.10;99.90
10543;DHT22;5320;50.046;10.314;2022-08-19T07:00:18;21.00;99.90
10543;DHT22;5320;50.046;10.314;2022-08-19T07:02:44;20.90;99.90
10543;DHT22;5320;50.046;10.314;2022-08-19T07:05:11;20.90;99.90
10543;DHT22;5320;50.046;10.314;2022-08-19T07:07:37;20.90;99.90
10543;DHT22;5320;50.046;10.314;2022-08-19T07:10:03;20.90;99.90
10543;DHT22;5320;50.046;10.314;2022-08-19T07:12:30;20.90;99.90
10543;DHT22;5320;50.046;10.314;2022-08-19T07:14:59;21.00;99.90
10543;DHT22;5320;50.046;10.314;2022-08-19T07:17:26;21.00;99.90
10543;DHT22;5320;50.046;10.314;2022-08-19T07:19:52;21.00;99.90
10543;DHT22;5320;50.046;10.314;2022-08-19T07:22:17;21.10;99.90
10543;DHT22;5320;50.046;10.314;2022-08-19T07:24:46;21.10;99.90
10543;DHT22;5320;50.046;10.314;2022-08-19T07:27:13;21.20;99.90
10543;DHT22;5320;50.046;10.314;2022-08-19T07:29:39;21.20;99.90
10543;DHT22;5320;50.046;10.314;2022-08-19T07:32:06;21.10;99.90
10543;DHT22;5320;50.046;10.314;2022-08-19T07:34:32;21.10;99.90
10543;DHT22;5320;50.046;10.314;2022-08-19T07:37:04;21.10;99.90
10543;DHT22;5320;50.046;10.314;2022-08-19T07:39:32;21.10;99.90
10543;DHT22;5320;50.046;10.314;2022-08-19T07:42:01;21.10;99.90
10543;DHT22;5320;50.046;10.314;2022-08-19T07:44:28;20.90;99.90
10543;DHT22;5320;50.046;10.314;2022-08-19T07:46:56;20.90;99.90
10543;DHT22;5320;50.046;10.314;2022-08-19T07:49:23;21.00;99.90
10543;DHT22;5320;50.046;10.314;2022-08-19T07:52:00;21.10;99.90
10543;DHT22;5320;50.046;10.314;2022-08-19T07:54:30;21.00;99.90
10543;DHT22;5320;50.046;10.314;2022-08-19T07:56:56;21.10;99.90
10543;DHT22;5320;50.046;10.314;2022-08-19T07:59:23;21.10;99.90
10543;DHT22;5320;50.046;10.314;2022-08-19T08:01:49;20.90;99.90
10543;DHT22;5320;50.046;10.314;2022-08-19T08:04:16;21.10;99.90
10543;DHT22;5320;50.046;10.314;2022-08-19T08:07:01;21.20;99.90
10543;DHT22;5320;50.046;10.314;2022-08-19T08:09:45;21.20;99.90
10543;DHT22;5320;50.046;10.314;2022-08-19T08:12:31;21.40;99.90
10543;DHT22;5320;50.046;10.314;2022-08-19T08:14:59;21.50;99.90
10543;DHT22;5320;50.046;10.314;2022-08-19T08:17:29;21.70;99.90
10543;DHT22;5320;50.046;10.314;2022-08-19T08:19:55;21.80;99.90
10543;DHT22;5320;50.046;10.314;2022-08-19T08:22:22;21.80;99.90
10543;DHT22;5320;50.046;10.314;2022-08-19T08:25:11;21.20;99.90
10543;DHT22;5320;50.046;10.314;2022-08-19T08:27:42;21.20;99.90
10543;DHT22;5320;50.046;10.314;2022-08-19T08:30:11;21.40;99.90
10543;DHT22;5320;50.046;10.314;2022-08-19T08:32:37;21.50;99.90
10543;DHT22;5320;50.046;10.314;2022-08-19T08:35:08;21.60;99.90
10543;DHT22;5320;50.046;10.314;2022-08-19T08:37:35;21.80;99.90
10543;DHT22;5320;50.046;10.314;2022-08-19T08:40:15;21.80;99.90
10543;DHT22;5320;50.046;10.314;2022-08-19T08:45:27;21.80;99.90
10543;DHT22;5320;50.046;10.314;2022-08-19T08:47:56;21.70;99.90
10543;DHT22;5320;50.046;10.314;2022-08-19T08:50:34;21.60;99.90
10543;DHT22;5320;50.046;10.314;2022-08-19T08:53:03;21.50;99.90
10543;DHT22;5320;50.046;10.314;2022-08-19T08:55:30;21.60;99.90
10543;DHT22;5320;50.046;10.314;2022-08-19T08:58:04;21.70;99.90
10543;DHT22;5320;50.046;10.314;2022-08-19T09:00:38;21.90;99.90
10543;DHT22;5320;50.046;10.314;2022-08-19T09:03:20;22.00;99.90
10543;DHT22;5320;50.046;10.314;2022-08-19T09:06:04;22.20;99.90
10543;DHT22;5320;50.046;10.314;2022-08-19T09:08:49;22.30;99.90
10543;DHT22;5320;50.046;10.314;2022-08-19T09:11:47;22.40;99.90
10543;DHT22;5320;50.046;10.314;2022-08-19T09:16:43;22.40;99.90
10543;DHT22;5320;50.046;10.314;2022-08-19T09:19:09;22.40;99.90
10543;DHT22;5320;50.046;10.314;2022-08-19T09:21:36;22.30;99.90
10543;DHT22;5320;50.046;10.314;2022-08-19T09:24:04;22.30;99.90
10543;DHT22;5320;50.046;10.314;2022-08-19T09:26:31;22.10;99.90
10543;DHT22;5320;50.046;10.314;2022-08-19T09:28:58;22.00;99.90
10543;DHT22;5320;50.046;10.314;2022-08-19T09:31:27;22.00;99.90
10543;DHT22;5320;50.046;10.314;2022-08-19T09:33:53;22.00;99.90
10543;DHT22;5320;50.046;10.314;2022-08-19T09:36:23;21.90;99.90
10543;DHT22;5320;50.046;10.314;2022-08-19T09:38:51;21.90;99.90
10543;DHT22;5320;50.046;10.314;2022-08-19T09:41:22;21.60;99.90
10543;DHT22;5320;50.046;10.314;2022-08-19T09:43:50;21.40;99.90
10543;DHT22;5320;50.046;10.314;2022-08-19T09:46:23;21.00;99.90
10543;DHT22;5320;50.046;10.314;2022-08-19T09:48:50;20.80;99.90
10543;DHT22;5320;50.046;10.314;2022-08-19T09:51:21;21.00;99.90
10543;DHT22;5320;50.046;10.314;2022-08-19T09:53:49;20.90;99.90
10543;DHT22;5320;50.046;10.314;2022-08-19T09:56:22;20.80;99.90
10543;DHT22;5320;50.046;10.314;2022-08-19T09:58:48;20.60;99.90
10543;DHT22;5320;50.046;10.314;2022-08-19T10:01:28;20.50;99.90
10543;DHT22;5320;50.046;10.314;2022-08-19T10:03:55;20.60;99.90
10543;DHT22;5320;50.046;10.314;2022-08-19T10:06:23;20.60;99.90
10543;DHT22;5320;50.046;10.314;2022-08-19T10:08:50;20.80;99.90
10543;DHT22;5320;50.046;10.314;2022-08-19T10:11:18;20.70;99.90
10543;DHT22;5320;50.046;10.314;2022-08-19T10:13:45;20.70;99.90
10543;DHT22;5320;50.046;10.314;2022-08-19T10:16:14;20.90;99.90
10543;DHT22;5320;50.046;10.314;2022-08-19T10:18:41;20.90;99.90
10543;DHT22;5320;50.046;10.314;2022-08-19T10:21:23;21.00;99.90
10543;DHT22;5320;50.046;10.314;2022-08-19T10:23:51;21.20;99.90
10543;DHT22;5320;50.046;10.314;2022-08-19T10:26:21;21.40;99.90
10543;DHT22;5320;50.046;10.314;2022-08-19T10:28:47;21.50;99.90
10543;DHT22;5320;50.046;10.314;2022-08-19T10:31:17;21.60;99.90
10543;DHT22;5320;50.046;10.314;2022-08-19T10:33:45;21.70;99.90
10543;DHT22;5320;50.046;10.314;2022-08-19T10:36:14;21.80;99.90
10543;DHT22;5320;50.046;10.314;2022-08-19T10:38:41;21.80;99.90
10543;DHT22;5320;50.046;10.314;2022-08-19T10:41:12;21.80;99.90
10543;DHT22;5320;50.046;10.314;2022-08-19T10:43:39;21.70;99.90
10543;DHT22;5320;50.046;10.314;2022-08-19T10:46:11;21.70;99.90
10543;DHT22;5320;50.046;10.314;2022-08-19T10:48:37;21.80;99.90
10543;DHT22;5320;50.046;10.314;2022-08-19T10:51:04;21.90;99.90
10543;DHT22;5320;50.046;10.314;2022-08-19T10:53:48;22.00;99.90
10543;DHT22;5320;50.046;10.314;2022-08-19T10:56:14;22.10;99.90
10543;DHT22;5320;50.046;10.314;2022-08-19T10:58:59;22.20;99.90
10543;DHT22;5320;50.046;10.314;2022-08-19T11:01:28;22.10;99.90
10543;DHT22;5320;50.046;10.314;2022-08-19T11:03:56;22.20;99.90
10543;DHT22;5320;50.046;10.314;2022-08-19T11:06:23;22.20;99.90
10543;DHT22;5320;50.046;10.314;2022-08-19T11:08:51;22.20;99.90
10543;DHT22;5320;50.046;10.314;2022-08-19T11:11:17;22.30;99.90
10543;DHT22;5320;50.046;10.314;2022-08-19T11:13:44;22.30;99.90
10543;DHT22;5320;50.046;10.314;2022-08-19T11:16:17;22.40;99.90
10543;DHT22;5320;50.046;10.314;2022-08-19T11:18:46;22.50;99.90
10543;DHT22;5320;50.046;10.314;2022-08-19T11:21:28;22.60;99.90
10543;DHT22;5320;50.046;10.314;2022-08-19T11:23:56;22.60;99.90
10543;DHT22;5320;50.046;10.314;2022-08-19T11:26:23;22.50;99.90
10543;DHT22;5320;50.046;10.314;2022-08-19T11:28:50;22.40;99.90
10543;DHT22;5320;50.046;10.314;2022-08-19T11:31:21;22.50;99.90
10543;DHT22;5320;50.046;10.314;2022-08-19T11:33:47;22.70;99.90
10543;DHT22;5320;50.046;10.314;2022-08-19T11:36:16;22.80;99.90
10543;DHT22;5320;50.046;10.314;2022-08-19T11:38:42;22.90;99.90
10543;DHT22;5320;50.046;10.314;2022-08-19T11:41:08;23.10;99.90
10543;DHT22;5320;50.046;10.314;2022-08-19T11:43:34;23.30;99.90
10543;DHT22;5320;50.046;10.314;2022-08-19T11:46:04;23.50;99.90
10543;DHT22;5320;50.046;10.314;2022-08-19T11:48:33;23.70;99.90
10543;DHT22;5320;50.046;10.314;2022-08-19T11:50:58;23.70;99.90
10543;DHT22;5320;50.046;10.314;2022-08-19T11:53:24;23.80;99.90
10543;DHT22;5320;50.046;10.314;2022-08-19T11:55:53;23.90;59.50
10543;DHT22;5320;50.046;10.314;2022-08-19T11:58:22;24.00;1.00
10543;DHT22;5320;50.046;10.314;2022-08-19T12:00:48;24.00;1.00
10543;DHT22;5320;50.046;10.314;2022-08-19T12:03:14;24.00;1.00
10543;DHT22;5320;50.046;10.314;2022-08-19T12:05:40;23.80;1.00
10543;DHT22;5320;50.046;10.314;2022-08-19T12:08:07;23.50;99.90
10543;DHT22;5320;50.046;10.314;2022-08-19T12:10:33;23.60;1.00
10543;DHT22;5320;50.046;10.314;2022-08-19T12:12:59;23.70;99.90
10543;DHT22;5320;50.046;10.314;2022-08-19T12:15:26;23.70;1.00
10543;DHT22;5320;50.046;10.314;2022-08-19T12:17:54;24.00;1.00
10543;DHT22;5320;50.046;10.314;2022-08-19T12:20:22;24.10;1.00
10543;DHT22;5320;50.046;10.314;2022-08-19T12:22:49;24.20;1.00
10543;DHT22;5320;50.046;10.314;2022-08-19T12:25:15;24.20;1.00
10543;DHT22;5320;50.046;10.314;2022-08-19T12:27:42;24.10;99.90
10543;DHT22;5320;50.046;10.314;2022-08-19T12:30:11;24.20;1.00
10543;DHT22;5320;50.046;10.314;2022-08-19T12:32:38;24.20;99.90
10543;DHT22;5320;50.046;10.314;2022-08-19T12:35:04;24.20;1.00
10543;DHT22;5320;50.046;10.314;2022-08-19T12:37:30;24.20;1.00
10543;DHT22;5320;50.046;10.314;2022-08-19T12:39:57;24.10;66.10
10543;DHT22;5320;50.046;10.314;2022-08-19T12:42:23;24.20;99.90
10543;DHT22;5320;50.046;10.314;2022-08-19T12:44:49;23.90;99.90
10543;DHT22;5320;50.046;10.314;2022-08-19T12:47:17;24.00;99.90
10543;DHT22;5320;50.046;10.314;2022-08-19T12:49:43;24.10;99.90
10543;DHT22;5320;50.046;10.314;2022-08-19T12:52:09;24.20;99.90
10543;DHT22;5320;50.046;10.314;2022-08-19T12:54:36;24.30;99.90
10543;DHT22;5320;50.046;10.314;2022-08-19T12:57:07;24.20;99.90
10543;DHT22;5320;50.046;10.314;2022-08-19T12:59:37;24.10;1.00
10543;DHT22;5320;50.046;10.314;2022-08-19T13:02:04;24.00;90.10
10543;DHT22;5320;50.046;10.314;2022-08-19T13:04:32;23.90;1.00
10543;DHT22;5320;50.046;10.314;2022-08-19T13:07:00;23.90;1.00
10543;DHT22;5320;50.046;10.314;2022-08-19T13:09:26;23.90;1.00
10543;DHT22;5320;50.046;10.314;2022-08-19T13:11:51;24.00;99.90
10543;DHT22;5320;50.046;10.314;2022-08-19T13:14:17;24.20;1.00
10543;DHT22;5320;50.046;10.314;2022-08-19T13:16:44;24.10;1.00
10543;DHT22;5320;50.046;10.314;2022-08-19T13:19:10;24.00;1.00
10543;DHT22;5320;50.046;10.314;2022-08-19T13:21:37;24.10;1.00
10543;DHT22;5320;50.046;10.314;2022-08-19T13:24:03;24.10;1.00
10543;DHT22;5320;50.046;10.314;2022-08-19T13:26:29;24.20;92.90
10543;DHT22;5320;50.046;10.314;2022-08-19T13:28:55;24.20;1.00
10543;DHT22;5320;50.046;10.314;2022-08-19T13:31:40;24.20;1.00
10543;DHT22;5320;50.046;10.314;2022-08-19T13:34:36;24.30;1.00
10543;DHT22;5320;50.046;10.314;2022-08-19T13:37:03;24.40;1.00
10543;DHT22;5320;50.046;10.314;2022-08-19T13:39:31;24.40;1.00
10543;DHT22;5320;50.046;10.314;2022-08-19T13:41:57;24.40;1.00
10543;DHT22;5320;50.046;10.314;2022-08-19T13:44:25;24.40;1.00
10543;DHT22;5320;50.046;10.314;2022-08-19T13:46:51;24.40;56.90
10543;DHT22;5320;50.046;10.314;2022-08-19T13:49:18;24.40;1.00
10543;DHT22;5320;50.046;10.314;2022-08-19T13:51:46;24.40;59.70
10543;DHT22;5320;50.046;10.314;2022-08-19T13:54:12;24.30;1.00
10543;DHT22;5320;50.046;10.314;2022-08-19T13:56:43;24.20;1.00
10543;DHT22;5320;50.046;10.314;2022-08-19T13:59:10;24.20;1.00
10543;DHT22;5320;50.046;10.314;2022-08-19T14:01:36;24.20;1.00
10543;DHT22;5320;50.046;10.314;2022-08-19T14:04:03;24.20;1.00
10543;DHT22;5320;50.046;10.314;2022-08-19T14:06:29;24.00;1.00
10543;DHT22;5320;50.046;10.314;2022-08-19T14:08:55;24.10;1.00
10543;DHT22;5320;50.046;10.314;2022-08-19T14:11:20;24.20;1.00
10543;DHT22;5320;50.046;10.314;2022-08-19T14:13:48;24.30;1.00
10543;DHT22;5320;50.046;10.314;2022-08-19T14:16:14;24.40;1.00
10543;DHT22;5320;50.046;10.314;2022-08-19T14:18:41;24.60;99.90
10543;DHT22;5320;50.046;10.314;2022-08-19T14:21:07;24.80;9.40
10543;DHT22;5320;50.046;10.314;2022-08-19T14:23:34;25.00;1.00
10543;DHT22;5320;50.046;10.314;2022-08-19T14:26:11;25.00;99.90
10543;DHT22;5320;50.046;10.314;2022-08-19T14:28:37;24.90;99.90
10543;DHT22;5320;50.046;10.314;2022-08-19T14:31:07;25.00;1.00
10543;DHT22;5320;50.046;10.314;2022-08-19T14:33:33;25.10;1.00
10543;DHT22;5320;50.046;10.314;2022-08-19T14:35:59;24.90;8.60
10543;DHT22;5320;50.046;10.314;2022-08-19T14:38:26;25.00;1.00
10543;DHT22;5320;50.046;10.314;2022-08-19T14:40:52;25.00;1.00
10543;DHT22;5320;50.046;10.314;2022-08-19T14:43:18;25.00;1.00
10543;DHT22;5320;50.046;10.314;2022-08-19T14:45:44;24.80;1.00
10543;DHT22;5320;50.046;10.314;2022-08-19T14:48:10;24.80;1.00
10543;DHT22;5320;50.046;10.314;2022-08-19T14:50:36;24.90;1.00
10543;DHT22;5320;50.046;10.314;2022-08-19T14:53:07;24.80;1.00
10543;DHT22;5320;50.046;10.314;2022-08-19T14:55:34;24.60;1.00
10543;DHT22;5320;50.046;10.314;2022-08-19T14:58:00;24.50;99.90
10543;DHT22;5320;50.046;10.314;2022-08-19T15:00:27;24.50;1.00
10543;DHT22;5320;50.046;10.314;2022-08-19T15:02:52;24.40;99.90
10543;DHT22;5320;50.046;10.314;2022-08-19T15:05:20;24.30;99.90
10543;DHT22;5320;50.046;10.314;2022-08-19T15:07:46;24.30;99.90
10543;DHT22;5320;50.046;10.314;2022-08-19T15:10:14;24.20;95.90
10543;DHT22;5320;50.046;10.314;2022-08-19T15:12:40;24.20;1.00
10543;DHT22;5320;50.046;10.314;2022-08-19T15:15:12;24.20;64.60
10543;DHT22;5320;50.046;10.314;2022-08-19T15:17:40;24.30;99.90
10543;DHT22;5320;50.046;10.314;2022-08-19T15:20:07;24.30;1.00
10543;DHT22;5320;50.046;10.314;2022-08-19T15:22:33;24.30;99.90
10543;DHT22;5320;50.046;10.314;2022-08-19T15:25:01;24.30;99.90
10543;DHT22;5320;50.046;10.314;2022-08-19T15:27:27;24.30;99.90
10543;DHT22;5320;50.046;10.314;2022-08-19T15:29:52;24.40;26.50
10543;DHT22;5320;50.046;10.314;2022-08-19T15:32:18;24.40;99.90
10543;DHT22;5320;50.046;10.314;2022-08-19T15:34:44;24.40;99.90
10543;DHT22;5320;50.046;10.314;2022-08-19T15:37:14;24.40;99.90
10543;DHT22;5320;50.046;10.314;2022-08-19T15:39:40;24.40;99.90
10543;DHT22;5320;50.046;10.314;2022-08-19T15:42:06;24.40;99.90
10543;DHT22;5320;50.046;10.314;2022-08-19T15:44:32;24.40;99.90
10543;DHT22;5320;50.046;10.314;2022-08-19T15:46:58;24.50;99.90
10543;DHT22;5320;50.046;10.314;2022-08-19T15:49:24;24.50;99.90
10543;DHT22;5320;50.046;10.314;2022-08-19T15:51:50;24.50;99.90